Time;durP1;ratioP1;P1;durP2;ratioP2;P2;SDS_P1;SDS_P2;PMS_P1;PMS_P2;Temp;Humidity;BMP_temperature;BMP_pressure;BME280_temperature;BME280_humidity;BME280_pressure;Samples;Min_cycle;Max_cycle;Signal;HPM_P1;HPM_P2
2022/11/21 00:00:57;;;;;;;0.70;0.70;;;;;;;3.56;100.00;100611.63;10534638;28;20043;-70
2022/11/21 00:05:57;;;;;;;1.70;1.70;;;;;;;3.55;100.00;100585.84;10542918;28;20106;-71
2022/11/21 00:10:58;;;;;;;2.40;2.30;;;;;;;3.50;100.00;100572.91;10558749;28;20040;-70
2022/11/21 00:16:03;;;;;;;2.28;1.60;;;;;;;3.54;100.00;100562.72;10558520;28;20032;-70
2022/11/21 00:21:07;;;;;;;1.45;1.38;;;;;;;3.57;100.00;100570.44;10557660;28;20039;-70
2022/11/21 00:26:08;;;;;;;1.30;1.30;;;;;;;3.62;100.00;100585.03;10557793;28;20028;-69
2022/11/21 00:31:17;;;;;;;1.40;1.40;;;;;;;3.60;100.00;100570.97;10558580;28;20452;-69
2022/11/21 00:36:17;;;;;;;1.25;1.25;;;;;;;3.59;100.00;100589.88;10557397;28;20028;-68
2022/11/21 00:41:18;;;;;;;1.17;1.17;;;;;;;3.56;100.00;100591.03;10545420;28;20097;-68
2022/11/21 00:46:18;;;;;;;0.90;0.90;;;;;;;3.54;100.00;100589.50;10542150;28;20039;-69
2022/11/21 00:51:18;;;;;;;1.08;1.08;;;;;;;3.52;100.00;100584.31;10541263;28;20079;-69
2022/11/21 00:56:19;;;;;;;2.70;2.60;;;;;;;3.42;100.00;100588.97;10541440;28;20125;-68
2022/11/21 01:01:19;;;;;;;3.25;3.00;;;;;;;3.35;100.00;100599.47;10541765;28;20036;-69
2022/11/21 01:06:19;;;;;;;2.83;2.05;;;;;;;3.32;100.00;100613.16;10541326;28;20058;-69
2022/11/21 01:11:20;;;;;;;4.57;3.40;;;;;;;3.32;100.00;100605.13;10539595;28;20482;-69
2022/11/21 01:16:22;;;;;;;1.27;1.27;;;;;;;3.27;100.00;100596.72;10555730;28;20407;-69
2022/11/21 01:21:27;;;;;;;0.90;0.90;;;;;;;3.18;100.00;100568.22;10556652;28;20032;-69
2022/11/21 01:26:29;;;;;;;4.22;3.22;;;;;;;3.26;100.00;100576.31;10556063;28;20103;-69
2022/11/21 01:31:30;;;;;;;2.15;2.05;;;;;;;3.25;100.00;100569.25;10539526;28;20063;-69
2022/11/21 01:36:31;;;;;;;0.90;0.90;;;;;;;3.12;100.00;100563.50;10520441;28;20060;-69
2022/11/21 01:41:36;;;;;;;1.27;1.27;;;;;;;2.93;100.00;100573.41;10540345;28;20492;-69
2022/11/21 01:46:37;;;;;;;0.70;0.70;;;;;;;2.82;100.00;100570.16;10555734;28;20371;-69
2022/11/21 01:51:54;;;;;;;2.15;2.15;;;;;;;2.71;100.00;100584.59;10539681;28;20062;-69
2022/11/21 01:56:57;;;;;;;2.90;2.80;;;;;;;2.78;100.00;100593.69;10539688;28;20028;-69
2022/11/21 02:01:58;;;;;;;5.45;5.15;;;;;;;2.80;100.00;100591.69;10539850;28;20048;-69
2022/11/21 02:06:59;;;;;;;0.95;0.95;;;;;;;2.81;100.00;100590.72;10537951;28;20132;-69
2022/11/21 02:12:12;;;;;;;0.90;0.90;;;;;;;2.79;100.00;100584.66;10554754;28;20387;-70
2022/11/21 02:17:13;;;;;;;1.33;1.33;;;;;;;2.78;100.00;100591.03;10557437;28;20028;-69
2022/11/21 02:22:22;;;;;;;17.92;6.28;;;;;;;2.74;100.00;100590.50;10559822;28;20036;-69
2022/11/21 02:27:22;;;;;;;0.52;0.52;;;;;;;2.69;100.00;100591.94;10542417;28;20028;-70
2022/11/21 02:32:24;;;;;;;8.68;2.95;;;;;;;2.68;100.00;100582.22;10538513;28;20032;-69
2022/11/21 02:37:24;;;;;;;4.85;3.17;;;;;;;2.58;100.00;100562.75;10538888;28;20055;-70
2022/11/21 02:42:30;;;;;;;0.88;0.88;;;;;;;2.68;100.00;100571.53;10538818;28;20478;-69
2022/11/21 02:47:30;;;;;;;0.80;0.80;;;;;;;2.69;100.00;100566.03;10542496;28;20028;-69
2022/11/21 02:52:31;;;;;;;0.70;0.70;;;;;;;2.64;100.00;100568.34;10561798;28;20628;-68
2022/11/21 02:57:31;;;;;;;1.92;1.80;;;;;;;2.55;100.00;100570.13;10546664;28;20036;-70
2022/11/21 03:02:31;;;;;;;0.60;0.60;;;;;;;2.49;100.00;100554.69;10547072;28;20123;-70
2022/11/21 03:07:32;;;;;;;0.65;0.65;;;;;;;2.46;100.00;100551.50;10545263;28;20425;-69
2022/11/21 03:12:37;;;;;;;1.00;1.00;;;;;;;2.41;100.00;100551.94;10562517;28;20111;-70
2022/11/21 03:17:37;;;;;;;1.00;1.00;;;;;;;2.40;100.00;100560.13;10545143;28;20028;-69
2022/11/21 03:22:38;;;;;;;1.85;1.85;;;;;;;2.31;100.00;100545.84;10546146;28;20440;-70
2022/11/21 03:27:38;;;;;;;1.10;1.10;;;;;;;2.26;100.00;100538.25;10545149;28;20035;-69
2022/11/21 03:32:39;;;;;;;1.65;1.55;;;;;;;2.23;100.00;100532.38;10544461;28;20388;-70
2022/11/21 03:37:39;;;;;;;0.60;0.60;;;;;;;2.19;100.00;100539.88;10562275;28;20094;-69
2022/11/21 03:42:39;;;;;;;1.00;1.00;;;;;;;2.20;100.00;100535.34;10560207;28;20040;-70
2022/11/21 03:47:40;;;;;;;0.60;0.60;;;;;;;2.13;100.00;100527.13;10545426;28;20035;-71
2022/11/21 03:52:40;;;;;;;0.90;0.90;;;;;;;2.06;100.00;100521.53;10542102;28;20048;-69
2022/11/21 03:57:42;;;;;;;2.97;2.75;;;;;;;2.13;100.00;100520.94;10541564;28;20043;-69
2022/11/21 04:02:42;;;;;;;1.98;1.98;;;;;;;2.16;100.00;100520.63;10544132;28;20129;-70
2022/11/21 04:07:43;;;;;;;0.95;0.95;;;;;;;2.14;100.00;100523.47;10542611;28;20380;-69
2022/11/21 04:12:44;;;;;;;0.65;0.65;;;;;;;2.12;100.00;100513.94;10542979;28;20044;-70
2022/11/21 04:17:44;;;;;;;2.25;2.05;;;;;;;2.09;100.00;100507.88;10542797;28;20043;-70
2022/11/21 04:22:45;;;;;;;3.63;1.67;;;;;;;2.09;100.00;100518.56;10542112;28;20036;-70
2022/11/21 04:27:45;;;;;;;0.90;0.90;;;;;;;2.10;100.00;100511.38;10542614;28;20357;-69
2022/11/21 04:32:46;;;;;;;2.30;1.35;;;;;;;2.04;100.00;100496.84;10542124;28;20039;-70
2022/11/21 04:37:46;;;;;;;1.58;1.48;;;;;;;2.06;100.00;100486.81;10544186;28;20415;-69
2022/11/21 04:42:47;;;;;;;0.90;0.90;;;;;;;2.06;100.00;100497.50;10543951;28;20040;-70
2022/11/21 04:47:49;;;;;;;1.05;1.05;;;;;;;2.04;100.00;100488.81;10542606;28;20043;-69
2022/11/21 04:52:53;;;;;;;0.80;0.80;;;;;;;2.05;100.00;100468.28;10541464;28;20048;-70
2022/11/21 04:57:53;;;;;;;0.75;0.75;;;;;;;2.05;100.00;100465.63;10540105;28;20065;-69
2022/11/21 05:02:54;;;;;;;0.85;0.85;;;;;;;1.97;100.00;100461.03;10540988;28;20032;-69
2022/11/21 05:07:54;;;;;;;1.63;1.63;;;;;;;2.04;100.00;100469.25;10539562;28;20106;-69
2022/11/21 05:18:18;;;;;;;0.73;0.73;;;;;;;2.20;100.00;100464.09;10540342;28;20031;-70
2022/11/21 05:23:19;;;;;;;0.73;0.73;;;;;;;2.24;100.00;100451.25;10540313;28;20097;-69
2022/11/21 05:28:19;;;;;;;1.42;1.35;;;;;;;2.29;100.00;100448.94;10539053;28;20032;-70
2022/11/21 05:33:19;;;;;;;0.93;0.93;;;;;;;2.21;100.00;100435.53;10540467;28;20077;-69
2022/11/21 05:38:20;;;;;;;0.90;0.90;;;;;;;2.13;100.00;100420.28;10539457;28;20032;-71
2022/11/21 05:48:39;;;;;;;0.70;0.70;;;;;;;2.10;100.00;100424.09;10539795;28;20445;-71
2022/11/21 05:53:40;;;;;;;1.23;1.23;;;;;;;2.10;100.00;100421.41;10555953;28;20048;-70
2022/11/21 05:58:40;;;;;;;1.13;1.13;;;;;;;2.14;100.00;100423.78;10538618;28;20075;-69
2022/11/21 06:03:41;;;;;;;0.90;0.90;;;;;;;2.22;100.00;100423.84;10539550;28;20399;-70
2022/11/21 06:08:42;;;;;;;1.60;1.60;;;;;;;2.39;100.00;100422.97;10538877;28;20043;-71
2022/11/21 06:13:43;;;;;;;0.90;0.90;;;;;;;2.54;100.00;100420.56;10539114;28;20031;-70
2022/11/21 06:18:44;;;;;;;1.92;1.83;;;;;;;2.60;100.00;100395.06;10539080;28;20039;-71
2022/11/21 06:23:45;;;;;;;1.10;1.10;;;;;;;2.65;100.00;100380.22;10498010;28;20431;-71
2022/11/21 06:28:45;;;;;;;2.25;2.17;;;;;;;2.68;100.00;100381.72;10562298;28;20040;-70
2022/11/21 06:33:46;;;;;;;0.88;0.88;;;;;;;2.79;100.00;100376.09;10545370;28;20032;-72
2022/11/21 06:38:46;;;;;;;0.95;0.95;;;;;;;2.84;100.00;100365.78;10546550;28;20449;-71
2022/11/21 06:43:47;;;;;;;4.15;3.92;;;;;;;2.93;100.00;100367.47;10545016;28;20039;-71
2022/11/21 06:48:47;;;;;;;0.80;0.80;;;;;;;3.02;100.00;100347.78;10589845;28;20427;-70
2022/11/21 06:53:55;;;;;;;0.75;0.75;;;;;;;2.94;100.00;100333.56;10569951;28;20054;-70
2022/11/21 06:58:55;;;;;;;0.90;0.90;;;;;;;2.82;100.00;100345.53;10592241;28;20551;-70
2022/11/21 07:03:56;;;;;;;1.73;1.73;;;;;;;2.62;100.00;100342.28;10595377;28;20066;-71
2022/11/21 07:08:56;;;;;;;0.75;0.75;;;;;;;2.52;100.00;100342.38;10576704;28;20042;-70
2022/11/21 07:13:57;;;;;;;2.83;2.72;;;;;;;2.46;100.00;100343.03;10553142;28;20439;-71
2022/11/21 07:18:59;;;;;;;0.70;0.70;;;;;;;2.37;100.00;100344.81;10569513;28;20043;-70
2022/11/21 07:23:59;;;;;;;0.70;0.70;;;;;;;2.36;100.00;100336.94;10569169;28;20024;-69
2022/11/21 07:28:59;;;;;;;1.00;1.00;;;;;;;2.40;100.00;100341.84;10587251;28;20035;-69
2022/11/21 07:34:00;;;;;;;0.73;0.73;;;;;;;2.39;100.00;100339.31;10584847;28;20040;-69
2022/11/21 07:39:01;;;;;;;0.68;0.68;;;;;;;2.30;100.00;100339.28;10590346;28;20129;-69
2022/11/21 07:44:02;;;;;;;0.60;0.60;;;;;;;2.35;100.00;100338.78;10600378;28;20055;-69
2022/11/21 07:49:02;;;;;;;2.03;2.03;;;;;;;2.35;100.00;100325.41;10608223;28;20054;-70
2022/11/21 07:54:02;;;;;;;4.00;2.30;;;;;;;2.33;100.00;100322.94;10562800;28;20052;-69
2022/11/21 07:59:03;;;;;;;0.93;0.93;;;;;;;2.49;100.00;100323.97;10585613;28;20032;-69
2022/11/21 08:04:03;;;;;;;2.33;2.22;;;;;;;2.81;100.00;100309.94;10585884;28;20490;-69
2022/11/21 08:09:04;;;;;;;1.33;1.33;;;;;;;3.46;100.00;100307.41;10584062;28;20024;-69
2022/11/21 08:14:04;;;;;;;1.13;1.13;;;;;;;4.33;100.00;100299.63;10578052;28;20027;-70
2022/11/21 08:19:05;;;;;;;0.70;0.70;;;;;;;5.16;100.00;100284.00;10601894;28;20376;-69
2022/11/21 08:24:09;;;;;;;0.80;0.80;;;;;;;5.78;100.00;100275.81;10597511;28;20043;-71
2022/11/21 08:29:10;;;;;;;1.27;1.27;;;;;;;6.39;100.00;100276.56;10568111;28;20067;-70
2022/11/21 08:34:11;;;;;;;1.13;1.13;;;;;;;6.75;100.00;100267.72;10582524;28;20056;-70
2022/11/21 08:39:11;;;;;;;0.60;0.60;;;;;;;6.81;100.00;100258.06;10569205;28;20034;-70
2022/11/21 08:44:12;;;;;;;0.85;0.85;;;;;;;7.03;100.00;100261.66;10583601;28;20036;-70
2022/11/21 08:49:12;;;;;;;0.80;0.80;;;;;;;7.44;100.00;100259.16;10583627;28;20034;-71
2022/11/21 08:54:12;;;;;;;1.45;1.40;;;;;;;7.89;100.00;100255.19;10582953;28;20047;-70
2022/11/21 08:59:13;;;;;;;0.60;0.60;;;;;;;8.31;100.00;100250.69;10580725;28;20506;-71
2022/11/21 09:04:14;;;;;;;1.17;1.17;;;;;;;8.68;100.00;100234.28;10582078;28;20039;-70
2022/11/21 09:09:14;;;;;;;0.50;0.50;;;;;;;7.99;100.00;100216.28;10582520;28;20039;-69
2022/11/21 09:19:33;;;;;;;0.50;0.50;;;;;;;7.90;100.00;100218.28;10582839;28;20043;-70
2022/11/21 09:24:34;;;;;;;0.40;0.40;;;;;;;8.45;100.00;100203.06;10566299;28;20032;-70
2022/11/21 09:29:34;;;;;;;0.60;0.60;;;;;;;7.64;100.00;100200.88;10587909;28;20035;-70
2022/11/21 09:34:34;;;;;;;0.40;0.40;;;;;;;7.29;100.00;100208.06;10583824;28;20066;-70
2022/11/21 09:39:35;;;;;;;0.52;0.52;;;;;;;7.25;100.00;100195.19;10564343;28;20459;-71
2022/11/21 09:44:57;;;;;;;0.30;0.30;;;;;;;7.93;100.00;100193.63;10566169;28;20113;-70
2022/11/21 09:50:24;;;;;;;0.68;0.68;;;;;;;7.90;100.00;100199.41;10595392;28;20095;-70
2022/11/21 09:55:25;;;;;;;;;;;;;;;8.04;100.00;100182.31;10572974;28;20046;-68
2022/11/21 10:00:25;;;;;;;0.45;0.45;;;;;;;7.86;100.00;100168.50;10607460;28;19915;-70
2022/11/21 10:05:42;;;;;;;0.82;0.82;;;;;;;8.47;100.00;100157.84;10590713;28;20483;-70
2022/11/21 10:11:05;;;;;;;0.40;0.40;;;;;;;8.54;100.00;100149.75;10594344;28;20356;-70
2022/11/21 10:16:25;;;;;;;0.57;0.57;;;;;;;8.96;100.00;100139.69;10605318;28;20364;-70
2022/11/21 10:21:42;;;;;;;0.40;0.40;;;;;;;9.02;100.00;100150.50;10559268;28;20045;-71
2022/11/21 10:26:59;;;;;;;0.60;0.60;;;;;;;8.74;100.00;100144.41;10587650;28;20032;-71
2022/11/21 10:32:23;;;;;;;0.75;0.75;;;;;;;8.41;100.00;100125.44;10570641;28;20061;-70
2022/11/21 10:37:32;;;;;;;0.30;0.30;;;;;;;8.14;100.00;100130.72;10571020;28;20019;-69
2022/11/21 10:42:39;;;;;;;2.10;2.00;;;;;;;8.46;100.00;100123.81;10570767;28;20038;-70
2022/11/21 10:47:39;;;;;;;0.50;0.50;;;;;;;8.53;100.00;100132.75;10577359;28;20032;-70
2022/11/21 10:52:44;;;;;;;0.52;0.52;;;;;;;8.86;100.00;100118.47;10573923;28;20051;-70
2022/11/21 10:57:46;;;;;;;1.00;1.00;;;;;;;9.47;100.00;100110.19;10588823;28;20035;-70
2022/11/21 11:02:55;;;;;;;2.78;2.58;;;;;;;10.25;100.00;100104.78;10570616;28;20028;-70
2022/11/21 11:08:12;;;;;;;1.10;1.10;;;;;;;10.57;100.00;100088.63;10569969;28;20053;-70
2022/11/21 11:18:28;;;;;;;0.60;0.60;;;;;;;10.98;100.00;100070.22;10588263;28;20111;-70
2022/11/21 11:23:29;;;;;;;0.50;0.50;;;;;;;10.78;100.00;100062.22;10589437;28;20165;-70
2022/11/21 11:28:34;;;;;;;10.25;6.57;;;;;;;10.76;100.00;100040.78;10585985;28;20494;-70
2022/11/21 11:33:36;;;;;;;25.83;7.80;;;;;;;10.71;100.00;100038.72;10568001;28;20063;-71
2022/11/21 11:38:36;;;;;;;11.68;5.10;;;;;;;10.54;100.00;100025.97;10587337;28;20024;-71
2022/11/21 11:49:02;;;;;;;4.22;3.78;;;;;;;9.98;100.00;100003.13;10588922;28;20032;-69
2022/11/21 11:54:13;;;;;;;9.00;4.10;;;;;;;9.29;100.00;99994.66;10573979;28;20455;-71
2022/11/21 11:59:26;;;;;;;11.10;4.07;;;;;;;8.74;100.00;99974.34;10570119;28;20065;-71
2022/11/21 12:04:28;;;;;;;10.80;3.65;;;;;;;8.65;100.00;99971.06;10585618;28;20027;-71
2022/11/21 12:09:53;;;;;;;15.25;3.25;;;;;;;8.55;100.00;99959.81;10550454;28;20035;-70
2022/11/21 12:20:31;;;;;;;6.70;2.25;;;;;;;8.37;100.00;99915.38;10583517;28;20031;-71
2022/11/21 12:26:08;;;;;;;8.05;4.25;;;;;;;8.26;100.00;99905.19;10567176;28;20114;-70
2022/11/21 12:31:18;;;;;;;;;;;;;;;8.25;100.00;99887.38;10578763;28;20425;-69
2022/11/21 12:36:21;;;;;;;12.00;2.08;;;;;;;8.24;100.00;99880.31;10583869;28;20327;-70
2022/11/21 12:58:45;;;;;;;9.90;5.10;;;;;;;8.10;100.00;99806.69;10582027;28;20043;-70
2022/11/21 13:03:59;;;;;;;13.90;5.68;;;;;;;8.12;100.00;99793.81;10563695;28;20106;-70
2022/11/21 13:09:01;;;;;;;13.88;4.40;;;;;;;8.13;100.00;99767.69;10581010;28;20054;-71
2022/11/21 13:14:06;;;;;;;13.55;4.03;;;;;;;8.09;100.00;99777.22;10565064;28;20028;-69
2022/11/21 13:19:31;;;;;;;7.05;4.30;;;;;;;8.13;100.00;99763.09;10548802;28;20137;-70
2022/11/21 13:24:44;;;;;;;4.50;3.58;;;;;;;8.07;100.00;99755.03;10583000;28;20470;-70
2022/11/21 13:30:14;;;;;;;8.85;4.45;;;;;;;8.05;100.00;99749.88;10582826;28;20080;-69
2022/11/21 13:35:18;;;;;;;6.70;2.83;;;;;;;8.01;100.00;99734.28;10581107;28;20458;-71
2022/11/21 13:40:27;;;;;;;6.25;3.33;;;;;;;8.05;100.00;99724.78;10582127;28;20028;-70
2022/11/21 13:45:42;;;;;;;8.07;3.78;;;;;;;8.01;100.00;99716.28;10563821;28;20475;-70
2022/11/21 13:51:01;;;;;;;6.95;2.88;;;;;;;7.95;100.00;99711.72;10581236;28;20024;-70
2022/11/21 13:56:10;;;;;;;12.60;3.22;;;;;;;7.95;100.00;99700.94;10581486;28;20487;-70
2022/11/21 14:01:23;;;;;;;8.75;3.58;;;;;;;7.85;100.00;99687.88;10567349;28;20383;-70
2022/11/21 14:06:42;;;;;;;6.93;3.00;;;;;;;7.77;100.00;99684.56;10584824;28;20051;-71
2022/11/21 14:11:50;;;;;;;11.95;4.07;;;;;;;7.71;100.00;99678.16;10581780;28;20049;-70
2022/11/21 14:16:56;;;;;;;10.18;2.55;;;;;;;7.65;100.00;99665.50;10564841;28;20444;-70
2022/11/21 14:21:57;;;;;;;4.10;3.70;;;;;;;7.66;100.00;99657.25;10564366;28;20027;-70
2022/11/21 14:26:57;;;;;;;9.45;4.00;;;;;;;7.55;100.00;99660.53;10565468;28;20031;-71
2022/11/21 14:31:58;;;;;;;6.82;5.20;;;;;;;7.57;100.00;99653.09;10564149;28;20452;-70
2022/11/21 14:37:01;;;;;;;9.25;3.88;;;;;;;7.48;100.00;99643.56;10579612;28;20032;-70
2022/11/21 14:42:02;;;;;;;11.35;3.63;;;;;;;7.49;100.00;99645.22;10564395;28;20031;-71
2022/11/21 14:47:16;;;;;;;5.55;3.97;;;;;;;7.51;100.00;99637.75;10588646;28;20032;-70
2022/11/21 14:52:28;;;;;;;6.50;4.82;;;;;;;7.39;100.00;99623.25;10588299;28;20447;-70
2022/11/21 14:57:30;;;;;;;7.97;3.15;;;;;;;7.38;100.00;99605.47;10544895;28;20105;-70
2022/11/21 15:02:30;;;;;;;7.35;5.10;;;;;;;7.40;100.00;99593.44;10560953;28;20036;-70
2022/11/21 15:07:38;;;;;;;8.23;4.10;;;;;;;7.40;100.00;99593.44;10546042;28;20036;-70
2022/11/21 15:12:47;;;;;;;11.50;5.07;;;;;;;7.33;100.00;99595.28;10545248;28;20035;-69
2022/11/21 15:17:49;;;;;;;6.22;4.63;;;;;;;7.23;100.00;99590.31;10544983;28;20032;-69
2022/11/21 15:22:49;;;;;;;12.32;4.97;;;;;;;7.19;100.00;99586.41;10560502;28;20050;-70
2022/11/21 15:27:51;;;;;;;8.38;6.40;;;;;;;7.21;100.00;99575.41;10543865;28;20043;-70
2022/11/21 15:33:04;;;;;;;25.83;6.53;;;;;;;7.18;100.00;99568.59;10560151;28;20047;-69
2022/11/21 15:38:28;;;;;;;11.45;6.68;;;;;;;7.16;100.00;99559.06;10559040;28;20032;-70
2022/11/21 15:43:48;;;;;;;9.90;7.03;;;;;;;7.15;100.00;99539.41;10542425;28;20068;-70
2022/11/21 15:48:49;;;;;;;9.43;7.20;;;;;;;7.16;100.00;99513.31;10542902;28;20029;-69
2022/11/21 15:53:51;;;;;;;13.38;7.05;;;;;;;7.15;100.00;99520.56;10547397;28;20044;-69
2022/11/21 15:58:51;;;;;;;18.25;7.28;;;;;;;7.16;100.00;99519.50;10568727;28;20035;-70
2022/11/21 16:03:54;;;;;;;9.38;5.90;;;;;;;7.12;100.00;99506.69;10567535;28;20110;-69
2022/11/21 16:08:55;;;;;;;6.82;5.53;;;;;;;7.07;100.00;99499.22;10583655;28;20027;-69
2022/11/21 16:14:00;;;;;;;10.75;7.07;;;;;;;7.01;100.00;99478.53;10566224;28;20031;-69
2022/11/21 16:19:00;;;;;;;11.00;6.45;;;;;;;6.88;100.00;99470.47;10584906;28;20031;-69
2022/11/21 16:24:00;;;;;;;5.72;4.10;;;;;;;6.86;100.00;99453.69;10566496;28;20035;-70
2022/11/21 16:29:04;;;;;;;18.10;7.90;;;;;;;6.82;100.00;99452.47;10586944;28;20395;-69
2022/11/21 16:34:04;;;;;;;12.20;4.70;;;;;;;6.84;100.00;99439.66;10585907;28;20475;-68
2022/11/21 16:39:04;;;;;;;11.38;5.50;;;;;;;6.88;100.00;99424.72;10584720;28;20031;-69
2022/11/21 16:44:05;;;;;;;17.33;6.03;;;;;;;6.88;100.00;99425.56;10583916;28;20122;-70
2022/11/21 16:49:06;;;;;;;7.15;5.53;;;;;;;6.97;100.00;99427.00;10566246;28;20116;-69
2022/11/21 16:54:06;;;;;;;10.15;6.05;;;;;;;7.04;100.00;99420.78;10566914;28;20084;-69
2022/11/21 16:59:07;;;;;;;21.70;6.43;;;;;;;7.01;100.00;99413.13;10584735;28;20052;-69
2022/11/21 17:04:09;;;;;;;12.32;5.43;;;;;;;7.05;100.00;99404.44;10580993;28;20449;-69
2022/11/21 17:09:09;;;;;;;10.68;6.05;;;;;;;6.99;100.00;99379.19;10548560;28;20060;-70
2022/11/21 17:14:10;;;;;;;12.30;6.78;;;;;;;6.90;100.00;99379.63;10564005;28;20027;-70
2022/11/21 17:19:11;;;;;;;15.57;6.00;;;;;;;6.90;100.00;99363.47;10582910;28;20023;-70
2022/11/21 17:24:12;;;;;;;8.10;5.43;;;;;;;6.89;100.00;99349.19;10583076;28;20039;-69
2022/11/21 17:29:12;;;;;;;10.70;5.55;;;;;;;6.93;100.00;99345.03;10566281;28;20032;-68
2022/11/21 17:34:13;;;;;;;15.35;5.22;;;;;;;6.85;100.00;99336.34;10582868;28;20379;-70
2022/11/21 17:39:16;;;;;;;10.40;5.45;;;;;;;6.83;100.00;99333.03;10582008;28;20028;-70
2022/11/21 17:44:17;;;;;;;13.27;6.18;;;;;;;6.84;100.00;99318.56;10564390;28;20032;-71
2022/11/21 17:49:17;;;;;;;12.23;5.75;;;;;;;6.74;100.00;99298.31;10564227;28;20058;-69
2022/11/21 17:54:17;;;;;;;13.32;4.10;;;;;;;6.76;100.00;99303.47;10581813;28;20023;-71
2022/11/21 17:59:18;;;;;;;8.05;5.97;;;;;;;6.78;100.00;99295.22;10546553;28;20475;-71
2022/11/21 18:04:18;;;;;;;6.63;5.85;;;;;;;6.74;100.00;99286.72;10581591;28;20042;-70
2022/11/21 18:09:19;;;;;;;16.63;7.30;;;;;;;6.66;100.00;99276.19;10581621;28;20043;-70
2022/11/21 18:14:19;;;;;;;11.07;6.43;;;;;;;6.52;100.00;99272.72;10582941;28;20024;-69
2022/11/21 18:19:20;;;;;;;14.20;7.30;;;;;;;6.42;100.00;99267.78;10568571;28;20070;-69
2022/11/21 18:24:20;;;;;;;10.48;6.35;;;;;;;6.36;100.00;99246.31;10590506;28;20028;-68
2022/11/21 18:29:23;;;;;;;8.07;6.05;;;;;;;6.35;100.00;99248.16;10589409;28;20524;-70
2022/11/21 18:34:23;;;;;;;17.40;7.35;;;;;;;6.33;100.00;99238.66;10570008;28;20031;-70
2022/11/21 18:39:25;;;;;;;8.63;5.78;;;;;;;6.34;100.00;99243.00;10588855;28;20063;-70
2022/11/21 18:44:26;;;;;;;14.25;6.95;;;;;;;6.33;100.00;99233.28;10588693;28;20031;-70
2022/11/21 18:49:26;;;;;;;11.93;7.68;;;;;;;6.33;100.00;99211.78;10571467;28;20123;-70
2022/11/21 18:54:26;;;;;;;9.50;5.85;;;;;;;6.32;100.00;99213.66;10591271;28;20028;-71
2022/11/21 18:59:27;;;;;;;13.85;7.50;;;;;;;6.29;100.00;99206.81;10590267;28;20040;-71
2022/11/21 19:04:27;;;;;;;11.38;7.07;;;;;;;6.27;100.00;99189.25;10587394;28;20080;-71
2022/11/21 19:09:28;;;;;;;11.93;6.43;;;;;;;6.28;100.00;99172.06;10587243;28;20054;-71
2022/11/21 19:14:28;;;;;;;13.98;6.25;;;;;;;6.27;100.00;99192.75;10567880;28;20402;-70
2022/11/21 19:19:29;;;;;;;15.80;6.82;;;;;;;6.27;100.00;99179.31;10584888;28;20067;-70
2022/11/21 19:24:29;;;;;;;16.30;7.18;;;;;;;6.31;100.00;99177.03;10585327;28;20038;-72
2022/11/21 19:29:30;;;;;;;11.85;5.88;;;;;;;6.30;100.00;99167.31;10585034;28;20043;-70
2022/11/21 19:34:30;;;;;;;6.65;4.80;;;;;;;6.34;100.00;99171.22;10586018;28;20443;-71
2022/11/21 19:39:30;;;;;;;9.75;4.30;;;;;;;6.37;100.00;99151.16;10568229;28;20036;-71
2022/11/21 19:44:32;;;;;;;9.40;4.53;;;;;;;6.34;100.00;99154.28;10585535;28;20032;-70
2022/11/21 19:49:32;;;;;;;12.50;4.50;;;;;;;6.29;100.00;99146.84;10567989;28;20035;-71
2022/11/21 19:54:34;;;;;;;13.80;5.55;;;;;;;6.28;100.00;99132.56;10545283;28;1114533;-71
2022/11/21 19:59:34;;;;;;;5.30;3.80;;;;;;;6.27;100.00;99119.34;10570682;28;20498;-70
2022/11/21 20:04:35;;;;;;;0.73;0.73;;;;;;;6.24;100.00;99107.16;10589170;28;20032;-71
2022/11/21 20:09:35;;;;;;;0.43;0.43;;;;;;;6.24;100.00;99093.72;10555440;28;20524;-71
2022/11/21 20:14:36;;;;;;;1.40;1.40;;;;;;;6.19;100.00;99082.81;10587530;28;20034;-69
2022/11/21 20:19:36;;;;;;;0.30;0.30;;;;;;;6.20;100.00;99072.88;10568602;28;20051;-70
2022/11/21 20:24:37;;;;;;;0.60;0.60;;;;;;;6.18;100.00;99061.50;10567836;28;20463;-70
2022/11/21 20:29:37;;;;;;;0.50;0.50;;;;;;;6.24;100.00;99061.47;10570293;28;20031;-70
2022/11/21 20:34:37;;;;;;;0.40;0.40;;;;;;;6.20;100.00;99052.19;10585670;28;20036;-69
2022/11/21 20:39:38;;;;;;;0.50;0.50;;;;;;;6.20;100.00;99025.31;10567519;28;20060;-71
2022/11/21 20:44:38;;;;;;;0.65;0.65;;;;;;;6.24;100.00;99037.28;10567792;28;20035;-70
2022/11/21 20:49:39;;;;;;;0.60;0.60;;;;;;;6.26;100.00;99037.06;10566898;28;20038;-69
2022/11/21 20:54:39;;;;;;;0.40;0.40;;;;;;;6.30;100.00;99024.84;10584667;28;20038;-70
2022/11/21 20:59:39;;;;;;;0.60;0.60;;;;;;;6.23;100.00;98997.19;10567614;28;20059;-70
2022/11/21 21:04:40;;;;;;;0.52;0.52;;;;;;;6.24;100.00;99015.78;10584525;28;20039;-69
2022/11/21 21:09:41;;;;;;;0.55;0.55;;;;;;;6.28;100.00;99008.09;10568592;28;20088;-70
2022/11/21 21:14:41;;;;;;;0.82;0.82;;;;;;;6.26;100.00;98989.50;10588073;28;20067;-70
2022/11/21 21:19:41;;;;;;;1.60;1.50;;;;;;;6.29;100.00;99018.66;10589379;28;20036;-70
2022/11/21 21:24:42;;;;;;;0.63;0.63;;;;;;;6.27;100.00;99003.78;10566290;28;20040;-71
2022/11/21 21:29:42;;;;;;;0.60;0.60;;;;;;;6.27;100.00;99001.09;10565044;28;20070;-70
2022/11/21 21:34:42;;;;;;;0.50;0.50;;;;;;;6.24;100.00;99004.19;10582784;28;20028;-69
2022/11/21 21:39:43;;;;;;;0.50;0.50;;;;;;;6.31;100.00;99006.84;10581968;28;20042;-69
2022/11/21 21:44:43;;;;;;;47.47;2.70;;;;;;;6.28;100.00;99013.47;10582666;28;20115;-70
2022/11/21 21:49:44;;;;;;;0.50;0.50;;;;;;;6.31;100.00;99013.03;10564069;28;20085;-70
2022/11/21 21:54:44;;;;;;;1.90;1.83;;;;;;;6.36;100.00;99015.09;10562730;28;20047;-69
2022/11/21 21:59:44;;;;;;;0.50;0.50;;;;;;;6.32;100.00;99001.28;10583215;28;20039;-69
2022/11/21 22:04:45;;;;;;;0.40;0.40;;;;;;;6.33;100.00;98997.53;10564362;28;20035;-69
2022/11/21 22:09:45;;;;;;;2.58;2.40;;;;;;;6.33;100.00;98999.41;10565666;28;20513;-69
2022/11/21 22:14:46;;;;;;;0.70;0.70;;;;;;;6.34;100.00;98995.66;10583512;28;20039;-69
2022/11/21 22:19:46;;;;;;;0.60;0.60;;;;;;;6.38;100.00;98999.56;10582444;28;20536;-70
2022/11/21 22:24:46;;;;;;;1.48;1.40;;;;;;;6.38;100.00;98992.34;10581543;28;20092;-69
2022/11/21 22:29:47;;;;;;;0.65;0.65;;;;;;;6.40;100.00;98987.56;10564134;28;20039;-70
2022/11/21 22:34:47;;;;;;;1.95;1.85;;;;;;;6.43;100.00;98986.31;10562044;28;20028;-69
2022/11/21 22:39:48;;;;;;;0.80;0.80;;;;;;;6.48;100.00;98983.78;10581302;28;20391;-69
2022/11/21 22:44:48;;;;;;;0.60;0.60;;;;;;;6.51;100.00;98972.59;10580818;28;20031;-69
2022/11/21 22:49:48;;;;;;;0.50;0.50;;;;;;;6.50;100.00;98969.06;10562793;28;20470;-69
2022/11/21 22:54:49;;;;;;;0.73;0.73;;;;;;;6.52;100.00;98961.63;10580705;28;20059;-70
2022/11/21 22:59:49;;;;;;;0.50;0.50;;;;;;;6.58;100.00;98962.63;10580876;28;20085;-69
2022/11/21 23:04:50;;;;;;;0.68;0.68;;;;;;;6.60;100.00;98946.25;10585033;28;20035;-68
2022/11/21 23:09:50;;;;;;;1.25;1.20;;;;;;;6.59;100.00;98950.81;10589008;28;20526;-69
2022/11/21 23:14:51;;;;;;;0.90;0.90;;;;;;;6.60;100.00;98955.13;10587759;28;20112;-68
2022/11/21 23:19:51;;;;;;;4.50;2.40;;;;;;;6.56;100.00;98953.94;10587228;28;20046;-68
2022/11/21 23:24:52;;;;;;;0.40;0.40;;;;;;;6.58;100.00;98953.72;10568891;28;20031;-68
2022/11/21 23:29:52;;;;;;;0.40;0.40;;;;;;;6.48;100.00;98957.72;10568060;28;20039;-68
2022/11/21 23:34:52;;;;;;;1.48;1.48;;;;;;;6.38;100.00;98968.16;10586720;28;20032;-68
2022/11/21 23:39:53;;;;;;;0.40;0.40;;;;;;;6.26;100.00;98967.19;10586812;28;20035;-67
2022/11/21 23:44:53;;;;;;;2.47;2.38;;;;;;;6.12;100.00;98961.06;10587253;28;20059;-68
2022/11/21 23:49:53;;;;;;;0.50;0.50;;;;;;;6.05;100.00;98969.16;10584476;28;20184;-68
2022/11/21 23:54:54;;;;;;;0.60;0.60;;;;;;;5.97;100.00;98968.59;10585313;28;20062;-68
2022/11/21 23:59:55;;;;;;;0.40;0.40;;;;;;;5.93;100.00;98965.50;10586220;28;20043;-68
